createdAt,value
2022-08-09T00:00:00.553Z,19.62
2022-08-09T00:02:31.241Z,19.61
2022-08-09T00:05:02.992Z,19.57
2022-08-09T00:07:47.979Z,19.55
2022-08-09T00:10:21.207Z,19.51
2022-08-09T00:12:52.282Z,19.49
2022-08-09T00:15:20.552Z,19.46
2022-08-09T00:18:06.066Z,19.43
2022-08-09T00:20:41.498Z,19.40
2022-08-09T00:23:54.641Z,19.38
2022-08-09T00:26:05.231Z,19.37
2022-08-09T00:28:34.501Z,19.35
2022-08-09T00:31:09.125Z,19.32
2022-08-09T00:33:51.023Z,19.31
2022-08-09T00:36:18.363Z,19.29
2022-08-09T00:38:45.011Z,19.27
2022-08-09T00:41:13.181Z,19.26
2022-08-09T00:44:10.586Z,19.24
2022-08-09T00:46:57.005Z,19.26
2022-08-09T00:49:36.837Z,19.24
2022-08-09T00:52:17.292Z,19.20
2022-08-09T00:54:44.931Z,19.17
2022-08-09T00:57:11.946Z,19.13
2022-08-09T00:59:46.227Z,19.12
2022-08-09T01:02:20.157Z,19.10
2022-08-09T01:05:14.319Z,19.07
2022-08-09T01:08:00.711Z,19.05
2022-08-09T01:10:37.278Z,19.04
2022-08-09T01:13:31.043Z,19.02
2022-08-09T01:16:00.920Z,19.00
2022-08-09T01:18:31.690Z,18.99
2022-08-09T01:21:36.215Z,18.98
2022-08-09T01:24:26.685Z,18.98
2022-08-09T01:26:59.263Z,18.96
2022-08-09T01:29:41.181Z,18.95
2022-08-09T01:32:43.778Z,18.93
2022-08-09T01:35:37.510Z,18.92
2022-08-09T01:38:10.804Z,18.89
2022-08-09T01:40:52.627Z,18.88
2022-08-09T01:43:31.526Z,18.84
2022-08-09T01:46:09.883Z,18.82
2022-08-09T01:48:47.212Z,18.82
2022-08-09T01:51:22.769Z,18.80
2022-08-09T01:53:54.547Z,18.79
2022-08-09T01:56:26.602Z,18.77
2022-08-09T01:58:55.254Z,18.76
2022-08-09T02:01:57.597Z,18.75
2022-08-09T02:04:12.825Z,18.75
2022-08-09T02:07:02.578Z,18.75
2022-08-09T02:09:42.632Z,18.73
2022-08-09T02:12:13.282Z,18.71
2022-08-09T02:14:48.722Z,18.70
2022-08-09T02:17:54.956Z,18.67
2022-08-09T02:20:10.158Z,18.65
2022-08-09T02:22:46.459Z,18.63
2022-08-09T02:25:18.644Z,18.62
2022-08-09T02:28:00.244Z,18.59
2022-08-09T02:30:36.451Z,18.59
2022-08-09T02:33:08.042Z,18.56
2022-08-09T02:36:01.393Z,18.54
2022-08-09T02:38:32.642Z,18.54
2022-08-09T02:41:10.829Z,18.52
2022-08-09T02:43:54.316Z,18.53
2022-08-09T02:46:27.442Z,18.50
2022-08-09T02:48:56.750Z,18.47
2022-08-09T02:51:26.494Z,18.45
2022-08-09T02:53:59.706Z,18.40
2022-08-09T02:56:28.255Z,18.37
2022-08-09T02:58:55.911Z,18.34
2022-08-09T03:01:29.592Z,18.33
2022-08-09T03:04:17.538Z,18.32
2022-08-09T03:06:48.718Z,18.30
2022-08-09T03:09:17.437Z,18.28
2022-08-09T03:12:05.792Z,18.26
2022-08-09T03:14:32.755Z,18.23
2022-08-09T03:17:01.847Z,18.21
2022-08-09T03:19:58.680Z,18.19
2022-08-09T03:22:25.699Z,18.18
2022-08-09T03:25:05.858Z,18.15
2022-08-09T03:27:47.940Z,18.14
2022-08-09T03:30:29.240Z,18.11
2022-08-09T03:32:58.540Z,18.09
2022-08-09T03:36:13.804Z,18.08
2022-08-09T03:38:28.558Z,18.06
2022-08-09T03:40:55.722Z,18.05
2022-08-09T03:43:22.244Z,18.03
2022-08-09T03:46:05.090Z,17.99
2022-08-09T03:48:37.175Z,17.98
2022-08-09T03:51:56.819Z,17.94
2022-08-09T03:53:58.943Z,17.92
2022-08-09T03:56:26.667Z,17.89
2022-08-09T03:58:54.697Z,17.86
2022-08-09T04:01:22.336Z,17.83
2022-08-09T04:04:02.307Z,17.81
2022-08-09T04:06:31.466Z,17.76
2022-08-09T04:08:57.958Z,17.74
2022-08-09T04:11:24.964Z,17.72
2022-08-09T04:14:53.001Z,17.70
2022-08-09T04:16:37.826Z,17.73
2022-08-09T04:19:05.454Z,17.70
2022-08-09T04:21:40.121Z,17.67
2022-08-09T04:24:07.864Z,17.65
2022-08-09T04:26:37.963Z,17.64
2022-08-09T04:29:10.888Z,17.63
2022-08-09T04:31:47.448Z,17.62
2022-08-09T04:34:14.341Z,17.62
2022-08-09T04:36:50.349Z,17.63
2022-08-09T04:39:17.184Z,17.63
2022-08-09T04:41:44.139Z,17.64
2022-08-09T04:44:14.438Z,17.64
2022-08-09T04:46:58.811Z,17.65
2022-08-09T04:49:53.295Z,17.67
2022-08-09T04:52:26.127Z,17.68
2022-08-09T04:54:57.296Z,17.71
2022-08-09T04:57:25.239Z,17.69
2022-08-09T04:59:55.423Z,17.72
2022-08-09T05:02:30.037Z,17.74
2022-08-09T05:04:57.225Z,17.77
2022-08-09T05:07:27.894Z,17.79
2022-08-09T05:10:01.624Z,17.83
2022-08-09T05:12:28.656Z,17.86
2022-08-09T05:14:57.374Z,17.90
2022-08-09T05:18:42.642Z,17.93
2022-08-09T05:20:10.453Z,18.03
2022-08-09T05:23:53.546Z,18.05
2022-08-09T05:25:25.036Z,18.07
2022-08-09T05:27:55.414Z,18.09
2022-08-09T05:30:22.032Z,18.12
2022-08-09T05:32:51.114Z,18.14
2022-08-09T05:35:21.926Z,18.18
2022-08-09T05:37:50.087Z,18.21
2022-08-09T05:40:17.236Z,18.26
2022-08-09T05:42:45.142Z,18.29
2022-08-09T05:45:14.284Z,18.33
2022-08-09T05:47:51.535Z,18.35
2022-08-09T05:50:26.838Z,18.37
2022-08-09T05:53:02.113Z,18.40
2022-08-09T05:55:28.723Z,18.42
2022-08-09T05:57:58.448Z,18.43
2022-08-09T06:00:28.821Z,18.46
2022-08-09T06:02:57.530Z,18.50
2022-08-09T06:05:50.532Z,18.51
2022-08-09T06:08:12.530Z,18.54
2022-08-09T06:10:39.198Z,18.57
2022-08-09T06:13:12.266Z,18.59
2022-08-09T06:15:45.133Z,18.62
2022-08-09T06:18:13.646Z,18.65
2022-08-09T06:20:42.759Z,18.67
2022-08-09T06:23:12.103Z,18.71
2022-08-09T06:25:43.347Z,18.73
2022-08-09T06:28:10.105Z,18.77
2022-08-09T06:30:37.266Z,18.80
2022-08-09T06:33:30.116Z,18.82
2022-08-09T06:35:57.335Z,18.91
2022-08-09T06:38:35.064Z,18.95
2022-08-09T06:41:04.303Z,18.99
2022-08-09T06:43:34.286Z,19.04
2022-08-09T06:46:07.130Z,19.10
2022-08-09T06:48:37.233Z,19.17
2022-08-09T06:51:10.165Z,19.23
2022-08-09T06:53:38.400Z,19.30
2022-08-09T06:56:07.011Z,19.38
2022-08-09T07:00:52.759Z,19.46
2022-08-09T07:01:21.374Z,19.56
2022-08-09T07:03:51.809Z,19.63
2022-08-09T07:06:20.881Z,19.74
2022-08-09T07:08:49.710Z,19.82
2022-08-09T07:11:23.593Z,19.91
2022-08-09T07:14:04.930Z,20.02
2022-08-09T07:16:38.866Z,20.12
2022-08-09T07:19:15.090Z,20.23
2022-08-09T07:21:43.332Z,20.34
2022-08-09T07:24:22.541Z,20.44
2022-08-09T07:27:00.571Z,20.55
2022-08-09T07:29:30.870Z,20.64
2022-08-09T07:32:05.855Z,20.75
2022-08-09T07:34:32.356Z,20.84
2022-08-09T07:37:02.611Z,20.92
2022-08-09T07:39:41.222Z,21.03
2022-08-09T07:42:08.754Z,21.15
2022-08-09T07:44:51.841Z,21.25
2022-08-09T07:47:21.070Z,21.39
2022-08-09T07:50:04.661Z,21.53
2022-08-09T07:52:42.936Z,21.67
2022-08-09T07:55:11.605Z,21.77
2022-08-09T07:57:46.926Z,21.88
2022-08-09T08:00:20.879Z,22.00
2022-08-09T08:03:04.350Z,22.10
2022-08-09T08:05:54.093Z,22.19
2022-08-09T08:09:00.563Z,22.29
2022-08-09T08:12:11.351Z,22.39
2022-08-09T08:13:56.307Z,22.49
2022-08-09T08:16:30.036Z,22.56
2022-08-09T08:18:59.254Z,22.66
2022-08-09T08:21:26.675Z,22.74
2022-08-09T08:23:56.192Z,22.84
2022-08-09T08:26:26.361Z,22.91
2022-08-09T08:29:08.840Z,22.99
2022-08-09T08:32:02.342Z,23.05
2022-08-09T08:34:25.596Z,23.15
2022-08-09T08:36:52.243Z,23.23
2022-08-09T08:39:18.941Z,23.32
2022-08-09T08:41:51.872Z,23.42
2022-08-09T08:44:22.945Z,23.54
2022-08-09T08:46:59.534Z,23.64
2022-08-09T08:49:38.703Z,23.75
2022-08-09T08:52:35.010Z,23.85
2022-08-09T08:55:04.000Z,23.95
2022-08-09T08:57:34.927Z,24.04
2022-08-09T09:00:02.372Z,24.14
2022-08-09T09:02:35.396Z,24.20
2022-08-09T09:05:05.946Z,24.26
2022-08-09T09:07:42.584Z,24.31
2022-08-09T09:10:10.600Z,24.37
2022-08-09T09:12:38.100Z,24.44
2022-08-09T09:15:06.259Z,24.51
2022-08-09T09:17:49.021Z,24.58
2022-08-09T09:20:21.302Z,24.66
2022-08-09T09:23:01.691Z,24.74
2022-08-09T09:26:02.978Z,24.81
2022-08-09T09:29:01.670Z,24.88
2022-08-09T09:32:01.627Z,24.94
2022-08-09T09:34:14.442Z,24.99
2022-08-09T09:36:52.747Z,25.04
2022-08-09T09:39:23.347Z,25.07
2022-08-09T09:41:51.200Z,25.11
2022-08-09T09:44:31.374Z,25.18
2022-08-09T09:47:09.385Z,25.26
2022-08-09T09:49:56.478Z,25.30
2022-08-09T09:52:36.882Z,25.36
2022-08-09T09:55:16.356Z,25.42
2022-08-09T09:58:17.318Z,25.49
2022-08-09T10:00:58.734Z,25.54
2022-08-09T10:03:57.611Z,25.62
2022-08-09T10:06:42.654Z,25.69
2022-08-09T10:09:22.792Z,25.73
2022-08-09T10:12:12.265Z,25.81
2022-08-09T10:14:44.019Z,25.86
2022-08-09T10:17:40.589Z,25.92
2022-08-09T10:20:27.577Z,25.99
2022-08-09T10:23:13.901Z,26.11
2022-08-09T10:26:08.021Z,26.16
2022-08-09T10:28:33.765Z,26.25
2022-08-09T10:34:08.904Z,26.41
2022-08-09T10:36:36.019Z,26.50
2022-08-09T10:39:03.242Z,26.57
2022-08-09T10:41:40.630Z,26.63
2022-08-09T10:44:09.970Z,26.69
2022-08-09T10:47:20.400Z,26.76
2022-08-09T10:50:03.324Z,26.81
2022-08-09T10:53:10.598Z,26.85
2022-08-09T10:55:55.013Z,26.87
2022-08-09T10:58:34.798Z,26.92
2022-08-09T11:03:07.431Z,26.94
2022-08-09T11:04:27.984Z,26.98
2022-08-09T11:07:00.254Z,27.02
2022-08-09T11:09:53.566Z,27.07
2022-08-09T11:12:29.841Z,27.11
2022-08-09T11:14:57.688Z,27.13
2022-08-09T11:17:27.271Z,27.15
2022-08-09T11:20:10.561Z,27.18
2022-08-09T11:22:45.599Z,27.20
2022-08-09T11:25:18.468Z,27.23
2022-08-09T11:28:03.789Z,27.26
2022-08-09T11:30:38.007Z,27.31
2022-08-09T11:33:31.051Z,27.38
2022-08-09T11:36:00.113Z,27.44
2022-08-09T11:38:32.592Z,27.54
2022-08-09T11:41:28.291Z,27.63
2022-08-09T11:44:05.341Z,27.72
2022-08-09T11:46:51.972Z,27.82
2022-08-09T11:49:28.290Z,27.89
2022-08-09T11:52:54.254Z,27.97
2022-08-09T11:55:35.175Z,28.04
2022-08-09T11:58:16.794Z,28.06
2022-08-09T12:00:59.969Z,28.04
2022-08-09T12:03:55.350Z,28.01
2022-08-09T12:06:26.641Z,27.99
2022-08-09T12:08:59.833Z,27.98
2022-08-09T12:11:28.461Z,27.99
2022-08-09T12:14:09.924Z,28.00
2022-08-09T12:16:41.681Z,28.03
2022-08-09T12:19:12.039Z,28.05
2022-08-09T12:21:48.605Z,28.09
2022-08-09T12:24:23.890Z,28.15
2022-08-09T12:29:00.007Z,28.21
2022-08-09T12:30:04.158Z,28.29
2022-08-09T12:32:40.748Z,28.37
2022-08-09T12:35:12.605Z,28.46
2022-08-09T12:37:44.040Z,28.53
2022-08-09T12:40:17.990Z,28.56
2022-08-09T12:42:46.613Z,28.59
2022-08-09T12:45:34.206Z,28.61
2022-08-09T12:48:08.051Z,28.64
2022-08-09T12:50:47.865Z,28.67
2022-08-09T12:53:38.707Z,28.72
2022-08-09T12:56:36.921Z,28.76
2022-08-09T12:59:12.098Z,28.80
2022-08-09T13:01:48.776Z,28.85
2022-08-09T13:04:36.934Z,28.91
2022-08-09T13:07:16.669Z,29.00
2022-08-09T13:09:55.268Z,29.05
2022-08-09T13:12:26.866Z,29.09
2022-08-09T13:15:04.541Z,29.09
2022-08-09T13:18:03.880Z,29.08
2022-08-09T13:20:37.224Z,29.08
2022-08-09T13:24:42.602Z,29.09
2022-08-09T13:26:36.504Z,29.10
2022-08-09T13:29:13.007Z,29.09
2022-08-09T13:32:13.701Z,29.11
2022-08-09T13:34:46.375Z,29.13
2022-08-09T13:37:13.213Z,29.12
2022-08-09T13:41:54.739Z,29.10
2022-08-09T13:42:41.024Z,29.09
2022-08-09T13:45:12.426Z,29.06
2022-08-09T13:47:49.425Z,29.04
2022-08-09T13:50:29.981Z,29.04
2022-08-09T13:52:58.317Z,29.06
2022-08-09T13:55:24.909Z,29.06
2022-08-09T13:57:58.549Z,29.08
2022-08-09T14:00:28.982Z,29.07
2022-08-09T14:03:03.016Z,29.09
2022-08-09T14:05:56.909Z,29.12
2022-08-09T14:08:28.295Z,29.15
2022-08-09T14:10:55.959Z,29.16
2022-08-09T14:14:14.990Z,29.13
2022-08-09T14:16:14.497Z,29.11
2022-08-09T14:18:53.935Z,29.10
2022-08-09T14:21:24.293Z,29.08
2022-08-09T14:23:55.662Z,29.08
2022-08-09T14:26:29.254Z,29.11
2022-08-09T14:28:57.606Z,29.12
2022-08-09T14:31:24.106Z,29.16
2022-08-09T14:34:11.257Z,29.19
2022-08-09T14:36:39.778Z,29.22
2022-08-09T14:39:09.718Z,29.24
2022-08-09T14:41:40.002Z,29.29
2022-08-09T14:44:09.625Z,29.34
2022-08-09T14:46:46.401Z,29.39
2022-08-09T14:49:25.564Z,29.45
2022-08-09T14:51:58.383Z,29.50
2022-08-09T14:54:27.601Z,29.52
2022-08-09T14:56:58.885Z,29.53
2022-08-09T14:59:28.412Z,29.54
2022-08-09T15:01:55.253Z,29.55
2022-08-09T15:04:27.004Z,29.56
2022-08-09T15:06:53.510Z,29.56
2022-08-09T15:09:51.954Z,29.58
2022-08-09T15:12:09.668Z,29.60
2022-08-09T15:14:39.283Z,29.62
2022-08-09T15:17:09.580Z,29.62
2022-08-09T15:19:36.951Z,29.62
2022-08-09T15:22:22.024Z,29.62
2022-08-09T15:24:52.688Z,29.62
2022-08-09T15:27:19.219Z,29.61
2022-08-09T15:30:57.291Z,29.60
2022-08-09T15:32:32.232Z,29.59
2022-08-09T15:35:02.475Z,29.58
2022-08-09T15:37:56.931Z,29.56
2022-08-09T15:40:36.101Z,29.54
2022-08-09T15:43:02.606Z,29.54
2022-08-09T15:45:30.067Z,29.54
2022-08-09T15:48:06.560Z,29.56
2022-08-09T15:50:44.040Z,29.61
2022-08-09T15:53:18.733Z,29.66
2022-08-09T15:56:21.058Z,29.74
2022-08-09T15:58:44.822Z,29.84
2022-08-09T16:01:13.449Z,29.90
2022-08-09T16:03:41.701Z,29.95
2022-08-09T16:06:27.411Z,30.01
2022-08-09T16:08:56.064Z,30.09
2022-08-09T16:11:22.767Z,30.16
2022-08-09T16:14:05.166Z,30.25
2022-08-09T16:16:37.190Z,30.34
2022-08-09T16:19:09.076Z,30.41
2022-08-09T16:21:39.821Z,30.48
2022-08-09T16:24:29.648Z,30.54
2022-08-09T16:26:55.065Z,30.61
2022-08-09T16:29:36.759Z,30.72
2022-08-09T16:32:18.082Z,30.86
2022-08-09T16:34:56.577Z,30.99
2022-08-09T16:37:53.682Z,31.10
2022-08-09T16:40:13.317Z,31.23
2022-08-09T16:42:45.060Z,31.33
2022-08-09T16:45:13.824Z,31.41
2022-08-09T16:48:42.197Z,31.49
2022-08-09T16:50:33.962Z,31.55
2022-08-09T16:53:02.210Z,31.61
2022-08-09T16:55:44.450Z,31.69
2022-08-09T16:58:16.976Z,31.79
2022-08-09T17:00:44.153Z,31.90
2022-08-09T17:03:21.748Z,32.05
2022-08-09T17:06:06.706Z,32.20
2022-08-09T17:08:46.676Z,32.33
2022-08-09T17:11:40.567Z,32.43
2022-08-09T17:14:25.586Z,32.53
2022-08-09T17:17:01.771Z,32.63
2022-08-09T17:20:05.915Z,32.68
2022-08-09T17:22:25.130Z,32.74
2022-08-09T17:25:03.553Z,32.79
2022-08-09T17:27:37.509Z,32.87
2022-08-09T17:30:07.178Z,32.96
2022-08-09T17:32:46.306Z,33.04
2022-08-09T17:35:13.422Z,33.09
2022-08-09T17:38:14.337Z,33.15
2022-08-09T17:40:29.492Z,33.20
2022-08-09T17:42:59.622Z,33.22
2022-08-09T17:45:45.568Z,33.26
2022-08-09T17:48:16.311Z,33.31
2022-08-09T17:50:48.704Z,33.36
2022-08-09T17:53:25.942Z,33.40
2022-08-09T17:55:57.644Z,33.39
2022-08-09T17:58:27.589Z,33.37
2022-08-09T18:00:56.685Z,33.31
2022-08-09T18:03:26.334Z,33.26
2022-08-09T18:05:56.815Z,33.21
2022-08-09T18:08:27.670Z,33.14
2022-08-09T18:11:00.886Z,33.07
2022-08-09T18:13:38.924Z,33.00
2022-08-09T18:16:10.649Z,32.92
2022-08-09T18:18:43.139Z,32.84
2022-08-09T18:21:23.790Z,32.74
2022-08-09T18:24:10.338Z,32.64
2022-08-09T18:26:38.627Z,32.53
2022-08-09T18:30:35.164Z,32.44
2022-08-09T18:32:00.147Z,32.25
2022-08-09T18:34:29.000Z,32.02
2022-08-09T18:36:55.581Z,31.73
2022-08-09T18:39:24.183Z,31.43
2022-08-09T18:41:53.197Z,31.12
2022-08-09T18:44:25.428Z,30.83
2022-08-09T18:47:08.221Z,30.52
2022-08-09T18:49:43.863Z,30.25
2022-08-09T18:52:14.446Z,30.00
2022-08-09T18:54:52.900Z,29.76
2022-08-09T18:57:22.128Z,29.56
2022-08-09T18:59:55.396Z,29.36
2022-08-09T19:02:31.667Z,29.20
2022-08-09T19:05:14.930Z,29.04
2022-08-09T19:08:04.656Z,28.87
2022-08-09T19:10:37.722Z,28.71
2022-08-09T19:13:20.033Z,28.57
2022-08-09T19:15:51.397Z,28.43
2022-08-09T19:18:33.799Z,28.29
2022-08-09T19:21:09.675Z,28.15
2022-08-09T19:24:33.610Z,28.01
2022-08-09T19:26:31.177Z,27.87
2022-08-09T19:29:01.522Z,27.75
2022-08-09T19:31:30.541Z,27.65
2022-08-09T19:34:21.989Z,27.56
2022-08-09T19:36:53.132Z,27.48
2022-08-09T19:39:43.221Z,27.40
2022-08-09T19:42:08.391Z,27.32
2022-08-09T19:44:35.469Z,27.24
2022-08-09T19:47:02.694Z,27.15
2022-08-09T19:50:08.467Z,27.06
2022-08-09T19:52:18.156Z,26.96
2022-08-09T19:54:45.057Z,26.87
2022-08-09T19:57:11.596Z,26.78
2022-08-09T20:00:06.467Z,26.69
2022-08-09T20:04:08.389Z,26.58
2022-08-09T20:05:16.703Z,26.50
2022-08-09T20:07:59.377Z,26.43
2022-08-09T20:10:34.597Z,26.35
2022-08-09T20:13:06.340Z,26.28
2022-08-09T20:16:33.354Z,26.20
2022-08-09T20:19:42.930Z,26.13
2022-08-09T20:22:00.041Z,26.02
2022-08-09T20:24:29.764Z,25.92
2022-08-09T20:27:02.572Z,25.80
2022-08-09T20:29:37.959Z,25.69
2022-08-09T20:32:41.989Z,25.59
2022-08-09T20:34:54.143Z,25.48
2022-08-09T20:37:21.502Z,25.35
2022-08-09T20:40:15.960Z,25.27
2022-08-09T20:42:37.825Z,25.16
2022-08-09T20:46:00.403Z,25.08
2022-08-09T20:47:52.087Z,25.01
2022-08-09T20:50:47.271Z,24.94
2022-08-09T20:53:18.575Z,24.86
2022-08-09T20:56:02.391Z,24.81
2022-08-09T20:58:32.606Z,24.76
2022-08-09T21:01:33.438Z,24.71
2022-08-09T21:05:49.487Z,24.65
2022-08-09T21:06:42.812Z,24.59
2022-08-09T21:09:11.757Z,24.53
2022-08-09T21:14:27.074Z,24.39
2022-08-09T21:16:57.526Z,24.31
2022-08-09T21:20:17.205Z,24.24
2022-08-09T21:22:35.658Z,24.18
2022-08-09T21:25:17.845Z,24.09
2022-08-09T21:27:51.912Z,24.00
2022-08-09T21:30:19.659Z,23.92
2022-08-09T21:32:48.997Z,23.84
2022-08-09T21:35:16.003Z,23.77
2022-08-09T21:37:56.891Z,23.70
2022-08-09T21:40:30.657Z,23.60
2022-08-09T21:42:59.288Z,23.55
2022-08-09T21:45:26.498Z,23.48
2022-08-09T21:47:53.763Z,23.40
2022-08-09T21:50:36.019Z,23.34
2022-08-09T21:53:06.748Z,23.28
2022-08-09T21:55:46.654Z,23.19
2022-08-09T21:58:13.512Z,23.12
2022-08-09T22:00:40.690Z,23.04
2022-08-09T22:03:19.325Z,22.96
2022-08-09T22:05:52.210Z,22.90
2022-08-09T22:08:19.508Z,22.83
2022-08-09T22:11:49.842Z,22.76
2022-08-09T22:13:43.414Z,22.70
2022-08-09T22:16:10.802Z,22.65
2022-08-09T22:18:54.554Z,22.60
2022-08-09T22:21:24.820Z,22.54
2022-08-09T22:24:00.109Z,22.50
2022-08-09T22:26:35.022Z,22.46
2022-08-09T22:29:07.605Z,22.41
2022-08-09T22:31:37.525Z,22.35
2022-08-09T22:34:09.903Z,22.32
2022-08-09T22:36:45.528Z,22.25
2022-08-09T22:39:46.570Z,22.21
2022-08-09T22:42:00.334Z,22.15
2022-08-09T22:44:29.843Z,22.12
2022-08-09T22:48:15.881Z,22.07
2022-08-09T22:49:46.100Z,22.02
2022-08-09T22:52:12.569Z,21.99
2022-08-09T22:54:42.155Z,21.94
2022-08-09T22:57:11.882Z,21.89
2022-08-09T22:59:58.494Z,21.84
2022-08-09T23:02:25.264Z,21.78
2022-08-09T23:04:54.050Z,21.74
2022-08-09T23:08:21.999Z,21.68
2022-08-09T23:10:27.575Z,21.64
2022-08-09T23:12:54.063Z,21.60
2022-08-09T23:15:20.562Z,21.57
2022-08-09T23:17:47.072Z,21.53
2022-08-09T23:20:13.774Z,21.48
2022-08-09T23:22:40.278Z,21.45
2022-08-09T23:25:07.294Z,21.42
2022-08-09T23:27:34.171Z,21.40
2022-08-09T23:30:00.794Z,21.37
2022-08-09T23:32:27.283Z,21.34
2022-08-09T23:34:53.751Z,21.32
2022-08-09T23:37:22.714Z,21.28
2022-08-09T23:39:52.066Z,21.24
2022-08-09T23:42:18.619Z,21.22
2022-08-09T23:44:45.167Z,21.19
2022-08-09T23:47:11.623Z,21.16
2022-08-09T23:49:38.254Z,21.14
2022-08-09T23:52:04.873Z,21.12
2022-08-09T23:54:31.359Z,21.10
2022-08-09T23:56:58.697Z,21.07
2022-08-09T23:59:25.731Z,21.04
